sensor_id;sensor_type;location;lat;lon;timestamp;pressure;altitude;pressure_sealevel;temperature;humidity
52535;BME280;38443;53.164;5.802;2023-05-10T00:01:51;100919.41;;;10.93;100.00
52535;BME280;38443;53.164;5.802;2023-05-10T00:04:17;100917.59;;;10.93;100.00
52535;BME280;38443;53.164;5.802;2023-05-10T00:06:42;100915.84;;;10.92;100.00
52535;BME280;38443;53.164;5.802;2023-05-10T00:09:07;100914.13;;;10.90;100.00
52535;BME280;38443;53.164;5.802;2023-05-10T00:11:33;100914.16;;;10.88;100.00
52535;BME280;38443;53.164;5.802;2023-05-10T00:13:58;100914.25;;;10.87;100.00
52535;BME280;38443;53.164;5.802;2023-05-10T00:16:23;100917.88;;;10.84;100.00
52535;BME280;38443;53.164;5.802;2023-05-10T00:18:48;100904.59;;;10.81;100.00
52535;BME280;38443;53.164;5.802;2023-05-10T00:21:14;100908.31;;;10.75;100.00
52535;BME280;38443;53.164;5.802;2023-05-10T00:23:39;100911.13;;;10.71;100.00
52535;BME280;38443;53.164;5.802;2023-05-10T00:26:05;100910.22;;;10.70;100.00
52535;BME280;38443;53.164;5.802;2023-05-10T00:28:30;100915.69;;;10.67;100.00
52535;BME280;38443;53.164;5.802;2023-05-10T00:30:56;100911.19;;;10.68;100.00
52535;BME280;38443;53.164;5.802;2023-05-10T00:33:21;100904.16;;;10.65;100.00
52535;BME280;38443;53.164;5.802;2023-05-10T00:35:47;100913.81;;;10.71;100.00
52535;BME280;38443;53.164;5.802;2023-05-10T00:38:12;100912.06;;;10.68;100.00
52535;BME280;38443;53.164;5.802;2023-05-10T00:40:37;100914.72;;;10.70;100.00
52535;BME280;38443;53.164;5.802;2023-05-10T00:43:03;100904.03;;;10.68;100.00
52535;BME280;38443;53.164;5.802;2023-05-10T00:45:30;100901.38;;;10.68;100.00
52535;BME280;38443;53.164;5.802;2023-05-10T00:47:56;100905.84;;;10.68;100.00
52535;BME280;38443;53.164;5.802;2023-05-10T00:50:22;100911.19;;;10.68;100.00
52535;BME280;38443;53.164;5.802;2023-05-10T00:52:48;100904.97;;;10.67;100.00
52535;BME280;38443;53.164;5.802;2023-05-10T00:55:14;100910.34;;;10.67;100.00
52535;BME280;38443;53.164;5.802;2023-05-10T00:57:40;100904.97;;;10.67;100.00
52535;BME280;38443;53.164;5.802;2023-05-10T01:00:05;100904.19;;;10.64;100.00
52535;BME280;38443;53.164;5.802;2023-05-10T01:02:33;100907.72;;;10.64;100.00
52535;BME280;38443;53.164;5.802;2023-05-10T01:04:59;100909.50;;;10.65;100.00
52535;BME280;38443;53.164;5.802;2023-05-10T01:07:25;100903.22;;;10.66;100.00
52535;BME280;38443;53.164;5.802;2023-05-10T01:09:50;100904.97;;;10.67;100.00
52535;BME280;38443;53.164;5.802;2023-05-10T01:12:16;100905.84;;;10.68;100.00
52535;BME280;38443;53.164;5.802;2023-05-10T01:14:41;100902.34;;;10.66;100.00
52535;BME280;38443;53.164;5.802;2023-05-10T01:17:07;100905.94;;;10.65;100.00
52535;BME280;38443;53.164;5.802;2023-05-10T01:19:34;100906.81;;;10.65;100.00
52535;BME280;38443;53.164;5.802;2023-05-10T01:22:12;100897.94;;;10.65;100.00
52535;BME280;38443;53.164;5.802;2023-05-10T01:27:38;100902.44;;;10.63;100.00
52535;BME280;38443;53.164;5.802;2023-05-10T01:30:35;100906.03;;;10.62;100.00
52535;BME280;38443;53.164;5.802;2023-05-10T01:33:18;100900.72;;;10.60;100.00
52535;BME280;38443;53.164;5.802;2023-05-10T01:35:56;100906.03;;;10.62;100.00
52535;BME280;38443;53.164;5.802;2023-05-10T01:38:44;100918.44;;;10.64;100.00
52535;BME280;38443;53.164;5.802;2023-05-10T01:46:49;100913.00;;;10.67;100.00
52535;BME280;38443;53.164;5.802;2023-05-10T01:49:23;100914.75;;;10.68;100.00
52535;BME280;38443;53.164;5.802;2023-05-10T01:51:53;100907.66;;;10.67;100.00
52535;BME280;38443;53.164;5.802;2023-05-10T01:54:21;100911.19;;;10.68;100.00
52535;BME280;38443;53.164;5.802;2023-05-10T01:56:56;100902.34;;;10.66;100.00
52535;BME280;38443;53.164;5.802;2023-05-10T01:59:28;100903.31;;;10.63;100.00
52535;BME280;38443;53.164;5.802;2023-05-10T02:01:57;100910.41;;;10.64;100.00
52535;BME280;38443;53.164;5.802;2023-05-10T02:04:24;100906.78;;;10.67;100.00
52535;BME280;38443;53.164;5.802;2023-05-10T02:06:51;100909.53;;;10.64;100.00
52535;BME280;38443;53.164;5.802;2023-05-10T02:09:18;100905.19;;;10.60;100.00
52535;BME280;38443;53.164;5.802;2023-05-10T02:11:48;100907.88;;;10.60;100.00
52535;BME280;38443;53.164;5.802;2023-05-10T02:14:15;100909.69;;;10.59;100.00
52535;BME280;38443;53.164;5.802;2023-05-10T02:16:42;100907.06;;;10.56;100.00
52535;BME280;38443;53.164;5.802;2023-05-10T02:19:09;100914.22;;;10.55;100.00
52535;BME280;38443;53.164;5.802;2023-05-10T02:21:39;100917.78;;;10.56;100.00
52535;BME280;38443;53.164;5.802;2023-05-10T02:24:05;100917.78;;;10.56;100.00
52535;BME280;38443;53.164;5.802;2023-05-10T02:26:33;100921.41;;;10.55;100.00
52535;BME280;38443;53.164;5.802;2023-05-10T02:29:01;100922.28;;;10.54;100.00
52535;BME280;38443;53.164;5.802;2023-05-10T02:31:29;100921.34;;;10.56;100.00
52535;BME280;38443;53.164;5.802;2023-05-10T02:33:56;100926.72;;;10.56;100.00
52535;BME280;38443;53.164;5.802;2023-05-10T02:36:24;100925.81;;;10.56;100.00
52535;BME280;38443;53.164;5.802;2023-05-10T02:38:51;100922.13;;;10.60;100.00
52535;BME280;38443;53.164;5.802;2023-05-10T02:41:19;100923.03;;;10.61;100.00
52535;BME280;38443;53.164;5.802;2023-05-10T02:43:47;100926.59;;;10.60;100.00
52535;BME280;38443;53.164;5.802;2023-05-10T02:46:13;100923.91;;;10.61;100.00
52535;BME280;38443;53.164;5.802;2023-05-10T02:48:39;100923.94;;;10.60;100.00
52535;BME280;38443;53.164;5.802;2023-05-10T02:51:06;100920.34;;;10.61;100.00
52535;BME280;38443;53.164;5.802;2023-05-10T02:53:34;100922.97;;;10.62;100.00
52535;BME280;38443;53.164;5.802;2023-05-10T02:56:05;100917.69;;;10.61;100.00
52535;BME280;38443;53.164;5.802;2023-05-10T02:58:32;100924.72;;;10.63;100.00
52535;BME280;38443;53.164;5.802;2023-05-10T03:00:59;100926.44;;;10.66;100.00
52535;BME280;38443;53.164;5.802;2023-05-10T03:03:25;100930.88;;;10.67;100.00
52535;BME280;38443;53.164;5.802;2023-05-10T03:05:50;100929.09;;;10.66;100.00
52535;BME280;38443;53.164;5.802;2023-05-10T03:08:18;100928.28;;;10.64;100.00
52535;BME280;38443;53.164;5.802;2023-05-10T03:11:00;100928.38;;;10.61;100.00
52535;BME280;38443;53.164;5.802;2023-05-10T03:13:49;100923.13;;;10.56;100.00
52535;BME280;38443;53.164;5.802;2023-05-10T03:16:31;100930.28;;;10.55;100.00
52535;BME280;38443;53.164;5.802;2023-05-10T03:19:13;100934.84;;;10.52;100.00
52535;BME280;38443;53.164;5.802;2023-05-10T03:21:44;100934.00;;;10.50;100.00
52535;BME280;38443;53.164;5.802;2023-05-10T03:24:13;100934.94;;;10.49;100.00
52535;BME280;38443;53.164;5.802;2023-05-10T03:26:43;100939.47;;;10.47;100.00
52535;BME280;38443;53.164;5.802;2023-05-10T03:29:10;100934.19;;;10.44;100.00
52535;BME280;38443;53.164;5.802;2023-05-10T03:31:38;100930.66;;;10.42;100.00
52535;BME280;38443;53.164;5.802;2023-05-10T03:34:03;100943.16;;;10.43;100.00
52535;BME280;38443;53.164;5.802;2023-05-10T03:36:28;100938.69;;;10.42;100.00
52535;BME280;38443;53.164;5.802;2023-05-10T03:38:54;100948.56;;;10.40;100.00
52535;BME280;38443;53.164;5.802;2023-05-10T03:41:19;100956.63;;;10.38;100.00
52535;BME280;38443;53.164;5.802;2023-05-10T03:43:45;100954.78;;;10.40;100.00
52535;BME280;38443;53.164;5.802;2023-05-10T03:46:11;100952.09;;;10.40;100.00
52535;BME280;38443;53.164;5.802;2023-05-10T03:48:36;100961.06;;;10.39;100.00
52535;BME280;38443;53.164;5.802;2023-05-10T03:51:01;100968.28;;;10.35;100.00
52535;BME280;38443;53.164;5.802;2023-05-10T03:53:27;100962.06;;;10.35;100.00
52535;BME280;38443;53.164;5.802;2023-05-10T03:55:52;100969.16;;;10.36;100.00
52535;BME280;38443;53.164;5.802;2023-05-10T03:58:18;100968.28;;;10.35;100.00
52535;BME280;38443;53.164;5.802;2023-05-10T04:00:43;100975.41;;;10.36;100.00
52535;BME280;38443;53.164;5.802;2023-05-10T04:03:10;100977.25;;;10.34;100.00
52535;BME280;38443;53.164;5.802;2023-05-10T04:05:36;100978.13;;;10.35;100.00
52535;BME280;38443;53.164;5.802;2023-05-10T04:08:02;100972.84;;;10.32;100.00
52535;BME280;38443;53.164;5.802;2023-05-10T04:10:27;100979.03;;;10.34;100.00
52535;BME280;38443;53.164;5.802;2023-05-10T04:12:53;100979.03;;;10.34;100.00
52535;BME280;38443;53.164;5.802;2023-05-10T04:15:18;100974.63;;;10.33;100.00
52535;BME280;38443;53.164;5.802;2023-05-10T04:17:44;100972.84;;;10.32;100.00
52535;BME280;38443;53.164;5.802;2023-05-10T04:20:10;100971.97;;;10.31;100.00
52535;BME280;38443;53.164;5.802;2023-05-10T04:22:35;100978.25;;;10.30;100.00
52535;BME280;38443;53.164;5.802;2023-05-10T04:25:01;100980.03;;;10.30;100.00
52535;BME280;38443;53.164;5.802;2023-05-10T04:27:26;100980.94;;;10.30;100.00
52535;BME280;38443;53.164;5.802;2023-05-10T04:29:52;100979.97;;;10.33;100.00
52535;BME280;38443;53.164;5.802;2023-05-10T04:32:17;100980.88;;;10.32;100.00
52535;BME280;38443;53.164;5.802;2023-05-10T04:34:43;100983.53;;;10.32;100.00
52535;BME280;38443;53.164;5.802;2023-05-10T04:37:08;100983.50;;;10.33;100.00
52535;BME280;38443;53.164;5.802;2023-05-10T04:39:34;100989.78;;;10.32;100.00
52535;BME280;38443;53.164;5.802;2023-05-10T04:42:00;100988.03;;;10.31;100.00
52535;BME280;38443;53.164;5.802;2023-05-10T04:44:28;100991.53;;;10.33;100.00
52535;BME280;38443;53.164;5.802;2023-05-10T04:46:53;100996.00;;;10.34;100.00
52535;BME280;38443;53.164;5.802;2023-05-10T04:49:18;100987.91;;;10.36;100.00
52535;BME280;38443;53.164;5.802;2023-05-10T04:51:44;100998.59;;;10.36;100.00
52535;BME280;38443;53.164;5.802;2023-05-10T04:54:09;100997.72;;;10.35;100.00
52535;BME280;38443;53.164;5.802;2023-05-10T04:56:35;101000.38;;;10.37;100.00
52535;BME280;38443;53.164;5.802;2023-05-10T04:59:00;101003.03;;;10.37;100.00
52535;BME280;38443;53.164;5.802;2023-05-10T05:01:26;101015.44;;;10.41;100.00
52535;BME280;38443;53.164;5.802;2023-05-10T05:03:51;101015.44;;;10.41;100.00
52535;BME280;38443;53.164;5.802;2023-05-10T05:06:18;101016.47;;;10.35;100.00
52535;BME280;38443;53.164;5.802;2023-05-10T05:08:43;101023.59;;;10.36;100.00
52535;BME280;38443;53.164;5.802;2023-05-10T05:11:08;101025.31;;;10.37;100.00
52535;BME280;38443;53.164;5.802;2023-05-10T05:13:34;101027.97;;;10.39;100.00
52535;BME280;38443;53.164;5.802;2023-05-10T05:16:01;101027.97;;;10.39;100.00
52535;BME280;38443;53.164;5.802;2023-05-10T05:18:26;101026.16;;;10.40;100.00
52535;BME280;38443;53.164;5.802;2023-05-10T05:20:51;101032.38;;;10.40;100.00
52535;BME280;38443;53.164;5.802;2023-05-10T05:23:17;101036.88;;;10.40;100.00
52535;BME280;38443;53.164;5.802;2023-05-10T05:25:43;101039.50;;;10.41;100.00
52535;BME280;38443;53.164;5.802;2023-05-10T05:28:08;101041.22;;;10.44;100.00
52535;BME280;38443;53.164;5.802;2023-05-10T05:30:34;101048.28;;;10.46;100.00
52535;BME280;38443;53.164;5.802;2023-05-10T05:32:59;101051.78;;;10.48;100.00
52535;BME280;38443;53.164;5.802;2023-05-10T05:35:24;101051.78;;;10.48;100.00
52535;BME280;38443;53.164;5.802;2023-05-10T05:37:50;101055.28;;;10.52;100.00
52535;BME280;38443;53.164;5.802;2023-05-10T05:40:15;101056.19;;;10.52;100.00
52535;BME280;38443;53.164;5.802;2023-05-10T05:42:41;101057.88;;;10.55;100.00
52535;BME280;38443;53.164;5.802;2023-05-10T05:45:09;101065.88;;;10.56;100.00
52535;BME280;38443;53.164;5.802;2023-05-10T05:47:38;101059.63;;;10.56;100.00
52535;BME280;38443;53.164;5.802;2023-05-10T05:50:04;101076.47;;;10.61;100.00
52535;BME280;38443;53.164;5.802;2023-05-10T05:52:30;101062.16;;;10.62;100.00
52535;BME280;38443;53.164;5.802;2023-05-10T05:54:55;101071.91;;;10.65;100.00
52535;BME280;38443;53.164;5.802;2023-05-10T05:57:20;101070.94;;;10.67;100.00
52535;BME280;38443;53.164;5.802;2023-05-10T05:59:45;101068.19;;;10.70;100.00
52535;BME280;38443;53.164;5.802;2023-05-10T06:02:11;101085.31;;;10.65;100.00
52535;BME280;38443;53.164;5.802;2023-05-10T06:04:36;101086.19;;;10.65;100.00
52535;BME280;38443;53.164;5.802;2023-05-10T06:07:02;101096.03;;;10.63;100.00
52535;BME280;38443;53.164;5.802;2023-05-10T06:09:27;101088.06;;;10.60;100.00
52535;BME280;38443;53.164;5.802;2023-05-10T06:11:52;101093.38;;;10.63;100.00
52535;BME280;38443;53.164;5.802;2023-05-10T06:14:20;101083.50;;;10.65;100.00
52535;BME280;38443;53.164;5.802;2023-05-10T06:16:45;101088.03;;;10.62;100.00
52535;BME280;38443;53.164;5.802;2023-05-10T06:19:11;101086.25;;;10.62;100.00
52535;BME280;38443;53.164;5.802;2023-05-10T06:21:36;101092.44;;;10.64;100.00
52535;BME280;38443;53.164;5.802;2023-05-10T06:24:01;101082.63;;;10.65;100.00
52535;BME280;38443;53.164;5.802;2023-05-10T06:26:27;101082.66;;;10.63;100.00
52535;BME280;38443;53.164;5.802;2023-05-10T06:28:53;101092.44;;;10.64;100.00
52535;BME280;38443;53.164;5.802;2023-05-10T06:31:18;101092.34;;;10.69;100.00
52535;BME280;38443;53.164;5.802;2023-05-10T06:33:43;101095.88;;;10.69;100.00
52535;BME280;38443;53.164;5.802;2023-05-10T06:36:09;101092.25;;;10.72;100.00
52535;BME280;38443;53.164;5.802;2023-05-10T06:38:34;101092.19;;;10.75;100.00
52535;BME280;38443;53.164;5.802;2023-05-10T06:40:59;101100.00;;;10.83;100.00
52535;BME280;38443;53.164;5.802;2023-05-10T06:43:25;101106.09;;;10.88;100.00
52535;BME280;38443;53.164;5.802;2023-05-10T06:45:51;101106.84;;;10.94;100.00
52535;BME280;38443;53.164;5.802;2023-05-10T06:48:17;101113.03;;;10.96;100.00
52535;BME280;38443;53.164;5.802;2023-05-10T06:50:42;101109.59;;;10.91;100.00
52535;BME280;38443;53.164;5.802;2023-05-10T06:53:08;101109.75;;;10.85;100.00
52535;BME280;38443;53.164;5.802;2023-05-10T06:55:33;101110.63;;;10.86;100.00
52535;BME280;38443;53.164;5.802;2023-05-10T06:57:58;101109.78;;;10.84;100.00
52535;BME280;38443;53.164;5.802;2023-05-10T07:00:24;101117.81;;;10.84;100.00
52535;BME280;38443;53.164;5.802;2023-05-10T07:02:49;101117.16;;;10.75;100.00
52535;BME280;38443;53.164;5.802;2023-05-10T07:05:14;101115.34;;;10.76;100.00
52535;BME280;38443;53.164;5.802;2023-05-10T07:07:40;101124.19;;;10.80;100.00
52535;BME280;38443;53.164;5.802;2023-05-10T07:10:06;101121.31;;;10.87;100.00
52535;BME280;38443;53.164;5.802;2023-05-10T07:12:32;101130.25;;;10.86;100.00
52535;BME280;38443;53.164;5.802;2023-05-10T07:14:57;101129.22;;;10.92;100.00
52535;BME280;38443;53.164;5.802;2023-05-10T07:17:23;101125.59;;;10.94;100.00
52535;BME280;38443;53.164;5.802;2023-05-10T07:19:48;101133.50;;;10.99;100.00
52535;BME280;38443;53.164;5.802;2023-05-10T07:22:14;101138.72;;;11.04;100.00
52535;BME280;38443;53.164;5.802;2023-05-10T07:24:40;101133.31;;;11.07;100.00
52535;BME280;38443;53.164;5.802;2023-05-10T07:27:05;101135.16;;;11.05;100.00
52535;BME280;38443;53.164;5.802;2023-05-10T07:29:31;101134.03;;;11.12;100.00
52535;BME280;38443;53.164;5.802;2023-05-10T07:31:56;101133.00;;;11.17;100.00
52535;BME280;38443;53.164;5.802;2023-05-10T07:34:22;101140.16;;;11.17;100.00
52535;BME280;38443;53.164;5.802;2023-05-10T07:36:47;101132.19;;;11.14;100.00
52535;BME280;38443;53.164;5.802;2023-05-10T07:39:12;101133.97;;;11.15;100.00
52535;BME280;38443;53.164;5.802;2023-05-10T07:41:38;101132.97;;;11.19;100.00
52535;BME280;38443;53.164;5.802;2023-05-10T07:44:04;101138.34;;;11.17;100.00
52535;BME280;38443;53.164;5.802;2023-05-10T07:46:30;101149.94;;;11.18;100.00
52535;BME280;38443;53.164;5.802;2023-05-10T07:48:55;101154.38;;;11.21;100.00
52535;BME280;38443;53.164;5.802;2023-05-10T07:51:21;101151.56;;;11.25;100.00
52535;BME280;38443;53.164;5.802;2023-05-10T07:53:46;101148.50;;;11.39;100.00
52535;BME280;38443;53.164;5.802;2023-05-10T07:56:26;101153.69;;;11.45;100.00
52535;BME280;38443;53.164;5.802;2023-05-10T07:58:55;101156.06;;;11.56;100.00
52535;BME280;38443;53.164;5.802;2023-05-10T08:01:22;101155.00;;;11.62;100.00
52535;BME280;38443;53.164;5.802;2023-05-10T08:03:48;101149.31;;;11.72;100.00
52535;BME280;38443;53.164;5.802;2023-05-10T08:06:14;101145.38;;;11.86;100.00
52535;BME280;38443;53.164;5.802;2023-05-10T08:08:40;101158.28;;;12.03;100.00
52535;BME280;38443;53.164;5.802;2023-05-10T08:11:06;101160.88;;;12.06;100.00
52535;BME280;38443;53.164;5.802;2023-05-10T08:13:31;101157.38;;;12.04;100.00
52535;BME280;38443;53.164;5.802;2023-05-10T08:15:57;101161.06;;;12.00;100.00
52535;BME280;38443;53.164;5.802;2023-05-10T08:18:22;101161.91;;;12.02;100.00
52535;BME280;38443;53.164;5.802;2023-05-10T08:20:47;101170.78;;;12.04;100.00
52535;BME280;38443;53.164;5.802;2023-05-10T08:23:13;101170.09;;;11.97;100.00
52535;BME280;38443;53.164;5.802;2023-05-10T08:25:38;101168.44;;;11.93;100.00
52535;BME280;38443;53.164;5.802;2023-05-10T08:28:04;101168.53;;;11.90;100.00
52535;BME280;38443;53.164;5.802;2023-05-10T08:30:29;101182.56;;;11.98;100.00
52535;BME280;38443;53.164;5.802;2023-05-10T08:32:55;101171.06;;;11.94;100.00
52535;BME280;38443;53.164;5.802;2023-05-10T08:35:20;101173.69;;;11.96;100.00
52535;BME280;38443;53.164;5.802;2023-05-10T08:37:45;101172.88;;;11.94;100.00
52535;BME280;38443;53.164;5.802;2023-05-10T08:40:11;101176.38;;;11.96;100.00
52535;BME280;38443;53.164;5.802;2023-05-10T08:42:39;101173.63;;;11.99;100.00
52535;BME280;38443;53.164;5.802;2023-05-10T08:45:06;101168.94;;;12.06;100.00
52535;BME280;38443;53.164;5.802;2023-05-10T08:47:33;101169.59;;;12.14;100.00
52535;BME280;38443;53.164;5.802;2023-05-10T08:50:00;101167.53;;;12.22;100.00
52535;BME280;38443;53.164;5.802;2023-05-10T08:52:28;101170.97;;;12.27;100.00
52535;BME280;38443;53.164;5.802;2023-05-10T08:54:55;101175.50;;;12.25;100.00
52535;BME280;38443;53.164;5.802;2023-05-10T08:57:20;101178.19;;;12.25;100.00
52535;BME280;38443;53.164;5.802;2023-05-10T08:59:46;101173.47;;;12.33;100.00
52535;BME280;38443;53.164;5.802;2023-05-10T09:02:12;101185.81;;;12.39;100.00
52535;BME280;38443;53.164;5.802;2023-05-10T09:04:38;101187.31;;;12.48;100.00
52535;BME280;38443;53.164;5.802;2023-05-10T09:07:04;101188.94;;;12.53;100.00
52535;BME280;38443;53.164;5.802;2023-05-10T09:09:29;101192.09;;;12.66;100.00
52535;BME280;38443;53.164;5.802;2023-05-10T09:11:55;101191.97;;;12.71;100.00
52535;BME280;38443;53.164;5.802;2023-05-10T09:14:20;101192.06;;;12.68;100.00
52535;BME280;38443;53.164;5.802;2023-05-10T09:16:48;101191.22;;;12.66;100.00
52535;BME280;38443;53.164;5.802;2023-05-10T09:19:13;101196.47;;;12.69;100.00
52535;BME280;38443;53.164;5.802;2023-05-10T09:21:39;101202.81;;;12.68;100.00
52535;BME280;38443;53.164;5.802;2023-05-10T09:24:08;101215.44;;;12.64;100.00
52535;BME280;38443;53.164;5.802;2023-05-10T09:26:34;101217.06;;;12.70;100.00
52535;BME280;38443;53.164;5.802;2023-05-10T09:29:01;101211.78;;;12.67;100.00
52535;BME280;38443;53.164;5.802;2023-05-10T09:32:03;101213.06;;;12.55;100.00
52535;BME280;38443;53.164;5.802;2023-05-10T09:34:31;101211.78;;;12.67;100.00
52535;BME280;38443;53.164;5.802;2023-05-10T09:36:59;101212.66;;;12.67;100.00
52535;BME280;38443;53.164;5.802;2023-05-10T09:39:37;101220.31;;;12.80;100.00
52535;BME280;38443;53.164;5.802;2023-05-10T09:42:05;101217.44;;;12.86;100.00
52535;BME280;38443;53.164;5.802;2023-05-10T09:44:32;101214.38;;;12.96;100.00
52535;BME280;38443;53.164;5.802;2023-05-10T09:46:58;101220.50;;;13.02;100.00
52535;BME280;38443;53.164;5.802;2023-05-10T09:49:23;101215.84;;;13.07;100.00
52535;BME280;38443;53.164;5.802;2023-05-10T09:52:06;101219.63;;;13.01;100.00
52535;BME280;38443;53.164;5.802;2023-05-10T09:54:31;101222.94;;;13.09;100.00
52535;BME280;38443;53.164;5.802;2023-05-10T09:56:57;101234.34;;;13.16;100.00
52535;BME280;38443;53.164;5.802;2023-05-10T09:59:25;101232.69;;;13.12;100.00
52535;BME280;38443;53.164;5.802;2023-05-10T10:01:53;101227.09;;;13.18;100.00
52535;BME280;38443;53.164;5.802;2023-05-10T10:04:20;101225.25;;;13.20;100.00
52535;BME280;38443;53.164;5.802;2023-05-10T10:06:58;101231.44;;;13.22;100.00
52535;BME280;38443;53.164;5.802;2023-05-10T10:09:24;101225.84;;;13.28;100.00
52535;BME280;38443;53.164;5.802;2023-05-10T10:11:49;101223.22;;;13.27;100.00
52535;BME280;38443;53.164;5.802;2023-05-10T10:14:18;101230.13;;;13.35;100.00
52535;BME280;38443;53.164;5.802;2023-05-10T10:16:43;101232.78;;;13.37;100.00
52535;BME280;38443;53.164;5.802;2023-05-10T10:19:10;101238.91;;;13.41;100.00
52535;BME280;38443;53.164;5.802;2023-05-10T10:21:35;101240.97;;;13.59;100.00
52535;BME280;38443;53.164;5.802;2023-05-10T10:24:01;101239.81;;;13.66;100.00
52535;BME280;38443;53.164;5.802;2023-05-10T10:26:26;101238.41;;;13.81;100.00
52535;BME280;38443;53.164;5.802;2023-05-10T10:31:40;101234.13;;;13.99;100.00
52535;BME280;38443;53.164;5.802;2023-05-10T10:34:08;101235.69;;;14.05;100.00
52535;BME280;38443;53.164;5.802;2023-05-10T10:36:45;101234.97;;;14.01;100.00
52535;BME280;38443;53.164;5.802;2023-05-10T10:39:11;101236.13;;;13.94;100.00
52535;BME280;38443;53.164;5.802;2023-05-10T10:41:39;101240.34;;;14.01;100.00
52535;BME280;38443;53.164;5.802;2023-05-10T10:44:32;101244.88;;;13.99;100.00
52535;BME280;38443;53.164;5.802;2023-05-10T10:49:42;101242.63;;;14.12;100.00
52535;BME280;38443;53.164;5.802;2023-05-10T10:52:29;101233.16;;;14.25;100.00
52535;BME280;38443;53.164;5.802;2023-05-10T10:57:27;101234.47;;;14.37;100.00
52535;BME280;38443;53.164;5.802;2023-05-10T11:03:03;101242.78;;;14.54;100.00
52535;BME280;38443;53.164;5.802;2023-05-10T11:05:35;101245.41;;;14.58;100.00
52535;BME280;38443;53.164;5.802;2023-05-10T11:08:48;101252.34;;;14.40;100.00
52535;BME280;38443;53.164;5.802;2023-05-10T11:13:40;101252.22;;;14.19;100.00
52535;BME280;38443;53.164;5.802;2023-05-10T11:16:22;101257.09;;;14.09;100.00
52535;BME280;38443;53.164;5.802;2023-05-10T11:19:01;101263.53;;;14.05;100.00
52535;BME280;38443;53.164;5.802;2023-05-10T11:21:28;101268.53;;;14.14;100.00
52535;BME280;38443;53.164;5.802;2023-05-10T11:23:57;101267.03;;;14.07;100.00
52535;BME280;38443;53.164;5.802;2023-05-10T11:26:24;101261.75;;;14.04;100.00
52535;BME280;38443;53.164;5.802;2023-05-10T11:28:52;101282.06;;;14.13;100.00
52535;BME280;38443;53.164;5.802;2023-05-10T11:31:20;101274.75;;;14.16;100.00
52535;BME280;38443;53.164;5.802;2023-05-10T11:33:48;101269.13;;;14.23;100.00
52535;BME280;38443;53.164;5.802;2023-05-10T11:36:18;101270.72;;;14.28;100.00
52535;BME280;38443;53.164;5.802;2023-05-10T11:38:44;101274.88;;;14.37;100.00
52535;BME280;38443;53.164;5.802;2023-05-10T11:41:11;101264.84;;;14.41;100.00
52535;BME280;38443;53.164;5.802;2023-05-10T11:43:38;101268.31;;;14.44;100.00
52535;BME280;38443;53.164;5.802;2023-05-10T11:46:09;101268.91;;;14.52;100.00
52535;BME280;38443;53.164;5.802;2023-05-10T11:48:36;101271.84;;;14.70;100.00
52535;BME280;38443;53.164;5.802;2023-05-10T11:51:01;101266.06;;;14.79;100.00
52535;BME280;38443;53.164;5.802;2023-05-10T11:53:29;101268.16;;;14.94;100.00
52535;BME280;38443;53.164;5.802;2023-05-10T11:55:55;101267.53;;;15.10;100.00
52535;BME280;38443;53.164;5.802;2023-05-10T11:58:20;101262.66;;;15.20;100.00
52535;BME280;38443;53.164;5.802;2023-05-10T12:00:46;101274.00;;;15.28;100.00
52535;BME280;38443;53.164;5.802;2023-05-10T12:03:13;101275.97;;;15.45;100.00
52535;BME280;38443;53.164;5.802;2023-05-10T12:05:39;101266.53;;;15.55;100.00
52535;BME280;38443;53.164;5.802;2023-05-10T12:08:19;101263.50;;;15.63;100.00
52535;BME280;38443;53.164;5.802;2023-05-10T12:10:45;101267.59;;;15.71;100.00
52535;BME280;38443;53.164;5.802;2023-05-10T12:13:14;101264.88;;;15.73;100.00
52535;BME280;38443;53.164;5.802;2023-05-10T12:15:40;101270.28;;;15.73;100.00
52535;BME280;38443;53.164;5.802;2023-05-10T12:18:05;101272.41;;;15.65;100.00
52535;BME280;38443;53.164;5.802;2023-05-10T12:20:31;101265.00;;;15.70;100.00
52535;BME280;38443;53.164;5.802;2023-05-10T12:22:58;101269.13;;;15.79;100.00
52535;BME280;38443;53.164;5.802;2023-05-10T12:25:33;101269.72;;;15.85;100.00
52535;BME280;38443;53.164;5.802;2023-05-10T12:27:59;101279.31;;;15.92;100.00
52535;BME280;38443;53.164;5.802;2023-05-10T12:30:30;101280.41;;;15.88;100.00
52535;BME280;38443;53.164;5.802;2023-05-10T12:35:44;101282.91;;;15.72;100.00
52535;BME280;38443;53.164;5.802;2023-05-10T12:40:52;101287.44;;;15.70;100.00
52535;BME280;38443;53.164;5.802;2023-05-10T12:43:17;101288.09;;;15.55;100.00
52535;BME280;38443;53.164;5.802;2023-05-10T12:45:42;101284.31;;;15.59;100.00
52535;BME280;38443;53.164;5.802;2023-05-10T12:48:12;101285.22;;;15.60;100.00
52535;BME280;38443;53.164;5.802;2023-05-10T12:50:38;101291.88;;;15.73;100.00
52535;BME280;38443;53.164;5.802;2023-05-10T12:53:03;101287.97;;;15.80;100.00
52535;BME280;38443;53.164;5.802;2023-05-10T12:55:28;101290.66;;;15.80;100.00
52535;BME280;38443;53.164;5.802;2023-05-10T12:57:54;101297.25;;;15.73;100.00
52535;BME280;38443;53.164;5.802;2023-05-10T13:00:19;101299.41;;;15.85;100.00
52535;BME280;38443;53.164;5.802;2023-05-10T13:02:44;101294.44;;;15.97;100.00
52535;BME280;38443;53.164;5.802;2023-05-10T13:05:10;101298.81;;;15.99;100.00
52535;BME280;38443;53.164;5.802;2023-05-10T13:07:36;101295.72;;;15.88;100.00
52535;BME280;38443;53.164;5.802;2023-05-10T13:10:01;101298.81;;;15.79;100.00